createdAt,value
2023-03-02T11:38:53.461Z,19.40
2023-03-02T11:41:59.198Z,19.40
2023-03-02T11:50:32.001Z,19.70
2023-03-02T11:53:07.430Z,19.90
2023-03-02T11:55:48.773Z,20.00
2023-03-02T11:58:23.727Z,20.10
2023-03-02T12:01:04.579Z,20.20
2023-03-02T12:06:20.830Z,20.50
2023-03-02T12:11:38.955Z,20.70
2023-03-02T12:14:42.243Z,20.60
2023-03-02T12:17:31.203Z,20.80
2023-03-02T12:20:26.944Z,20.80
2023-03-02T12:22:54.580Z,20.70
2023-03-02T12:25:29.391Z,20.70
2023-03-02T12:27:56.173Z,20.70
2023-03-02T12:30:26.866Z,22.70
2023-03-02T12:35:41.444Z,21.10
2023-03-02T12:38:27.112Z,21.20
2023-03-02T12:41:02.198Z,21.10
2023-03-02T12:43:38.268Z,21.10
2023-03-02T12:46:16.053Z,21.00
2023-03-02T12:52:43.926Z,21.00
2023-03-02T12:55:17.819Z,20.80
2023-03-02T12:57:50.384Z,20.80
2023-03-02T13:00:19.971Z,20.80
2023-03-02T13:02:52.720Z,20.90
2023-03-02T13:05:27.166Z,20.90
2023-03-02T13:07:59.946Z,20.90
2023-03-02T13:10:36.873Z,20.90
2023-03-02T13:13:16.151Z,21.00
2023-03-02T13:16:00.720Z,21.10
2023-03-02T13:18:33.335Z,21.10
2023-03-02T13:21:02.488Z,21.10
2023-03-02T13:23:31.462Z,21.10
2023-03-02T13:26:02.880Z,21.10
2023-03-02T13:28:35.149Z,21.00
2023-03-02T13:31:20.065Z,20.90
2023-03-02T13:33:56.620Z,19.80
2023-03-02T13:36:38.662Z,20.90
2023-03-02T13:39:09.220Z,20.80
2023-03-02T13:41:42.356Z,20.70
2023-03-02T13:44:33.261Z,20.60
2023-03-02T13:47:00.959Z,20.60
2023-03-02T13:49:33.539Z,20.50
2023-03-02T13:52:38.386Z,20.40
2023-03-02T13:55:17.892Z,19.60
2023-03-02T13:57:48.098Z,19.30
2023-03-02T14:00:21.904Z,19.10
2023-03-02T14:02:50.568Z,18.30
2023-03-02T14:05:20.803Z,18.10
2023-03-02T14:07:48.121Z,17.30
2023-03-02T14:10:17.840Z,16.80
2023-03-02T14:12:57.464Z,16.10
2023-03-02T14:15:25.356Z,15.90
2023-03-02T14:20:20.278Z,15.20
2023-03-02T14:25:21.039Z,14.80
2023-03-02T14:30:58.438Z,14.50
2023-03-02T14:44:14.420Z,14.00
2023-03-02T15:38:29.420Z,13.10
2023-03-02T17:28:36.355Z,11.30
2023-03-02T17:59:20.601Z,10.90
2023-03-02T18:08:01.445Z,10.70
2023-03-02T18:26:34.132Z,10.10
2023-03-02T19:58:03.920Z,7.90
2023-03-02T20:39:09.678Z,7.10
2023-03-02T20:49:31.396Z,6.80
